Terminal Aerodrome Forecast
Issued by NWS

Home | Current Version | Previous Version | Text Only | Print | Product List | Glossary On
Versions: 1 2 3 4 5 6 7 8 9 10 11 12 13 14 15 16 17 18 19 20 21 22 23 24 25 26 27 28 29 30 31 32 33 34 35 36 37 38 39 40 41 42
000
FTUS42 KILM 210603 CCA
TAFCRE
TAF COR
KCRE 210603Z 2106/2206 30006KT 6SM BR OVC003
     FM210800 26007KT 3SM -DZ BR OVC003
     FM211100 27008KT 4SM BR BKN007
     FM211330 26010G16KT P6SM SCT035 SCT250
     FM212100 24008KT P6SM SCT040 BKN250
     FM220000 22007KT P6SM VCSH BKN040 OVC250=

USA.gov is the U.S. government's official web portal to all federal, state and local government web resources and services.